Time,TemperatureF,DewpointF,PressureIn,WindDirection,WindDirectionDegrees,WindSpeedMPH,WindSpeedGustMPH,Humidity,HourlyPrecipIn,Conditions,Clouds,dailyrainin,SoftwareType,DateUTC
2013-08-22 00:03:00,75.6,70.5,30.12,South,180,0.0,0.0,84,0.00,,,0.00,WUHU21623XXSP,2013-08-22 05:03:00,
2013-08-22 00:08:00,75.4,70.3,30.12,South,180,0.0,0.0,84,0.00,,,0.00,WUHU21623XXSP,2013-08-22 05:08:00,
2013-08-22 00:13:00,75.4,70.3,30.12,South,180,0.0,0.0,84,0.00,,,0.00,WUHU21623XXSP,2013-08-22 05:13:00,
2013-08-22 00:18:00,75.0,69.9,30.12,South,180,0.0,0.0,84,0.00,,,0.00,WUHU21623XXSP,2013-08-22 05:18:00,
2013-08-22 00:23:00,75.0,69.9,30.12,South,180,0.0,0.0,84,0.00,,,0.00,WUHU21623XXSP,2013-08-22 05:23:00,
2013-08-22 00:28:00,74.8,69.7,30.12,South,180,0.0,0.0,84,0.00,,,0.00,WUHU21623XXSP,2013-08-22 05:28:00,
2013-08-22 00:33:00,74.7,69.6,30.12,South,180,0.0,0.0,84,0.00,,,0.00,WUHU21623XXSP,2013-08-22 05:33:00,
2013-08-22 00:38:00,74.5,69.4,30.12,South,180,0.0,0.0,84,0.00,,,0.00,WUHU21623XXSP,2013-08-22 05:38:00,
2013-08-22 00:43:00,74.1,69.0,30.12,South,180,0.0,0.0,84,0.00,,,0.00,WUHU21623XXSP,2013-08-22 05:43:00,
2013-08-22 00:48:00,73.9,68.8,30.12,South,180,0.0,0.0,84,0.00,,,0.00,WUHU21623XXSP,2013-08-22 05:48:00,
2013-08-22 00:53:00,73.9,68.8,30.12,South,180,0.0,0.0,84,0.00,,,0.00,WUHU21623XXSP,2013-08-22 05:53:00,
2013-08-22 00:58:00,73.6,68.5,30.12,South,180,0.0,0.0,84,0.00,,,0.00,WUHU21623XXSP,2013-08-22 05:58:00,
2013-08-22 01:03:00,73.6,68.8,30.11,South,180,0.0,0.0,85,0.00,,,0.00,WUHU21623XXSP,2013-08-22 06:03:00,
2013-08-22 01:08:00,73.4,68.6,30.11,South,180,0.0,0.0,85,0.00,,,0.00,WUHU21623XXSP,2013-08-22 06:08:00,
2013-08-22 01:13:00,73.2,68.5,30.11,South,180,0.0,0.0,85,0.00,,,0.00,WUHU21623XXSP,2013-08-22 06:13:00,
2013-08-22 01:18:00,73.2,68.5,30.11,South,180,0.0,0.0,85,0.00,,,0.00,WUHU21623XXSP,2013-08-22 06:18:00,
2013-08-22 01:23:00,73.0,68.3,30.12,South,180,0.0,0.0,85,0.00,,,0.00,WUHU21623XXSP,2013-08-22 06:23:00,
2013-08-22 01:28:00,72.9,68.2,30.12,South,180,0.0,0.0,85,0.00,,,0.00,WUHU21623XXSP,2013-08-22 06:28:00,
2013-08-22 01:33:00,72.7,68.0,30.12,South,180,0.0,0.0,85,0.00,,,0.00,WUHU21623XXSP,2013-08-22 06:33:00,
2013-08-22 01:38:00,72.5,67.8,30.12,South,180,0.0,0.0,85,0.00,,,0.00,WUHU21623XXSP,2013-08-22 06:38:00,
2013-08-22 01:43:00,72.5,67.8,30.11,South,180,0.0,0.0,85,0.00,,,0.00,WUHU21623XXSP,2013-08-22 06:43:00,
2013-08-22 01:48:00,72.3,67.6,30.11,South,180,0.0,0.0,85,0.00,,,0.00,WUHU21623XXSP,2013-08-22 06:48:00,
2013-08-22 01:53:00,72.3,67.6,30.11,South,180,0.0,0.0,85,0.00,,,0.00,WUHU21623XXSP,2013-08-22 06:53:00,
2013-08-22 01:58:00,72.3,67.6,30.10,South,180,0.0,0.0,85,0.00,,,0.00,WUHU21623XXSP,2013-08-22 06:58:00,
2013-08-22 02:03:00,72.3,67.6,30.10,South,180,0.0,0.0,85,0.00,,,0.00,WUHU21623XXSP,2013-08-22 07:03:00,
2013-08-22 02:08:00,72.3,67.6,30.11,South,180,0.0,0.0,85,0.00,,,0.00,WUHU21623XXSP,2013-08-22 07:08:00,
2013-08-22 02:13:00,72.1,67.7,30.11,South,180,0.0,0.0,86,0.00,,,0.00,WUHU21623XXSP,2013-08-22 07:13:00,
2013-08-22 02:18:00,72.1,67.7,30.10,South,180,0.0,0.0,86,0.00,,,0.00,WUHU21623XXSP,2013-08-22 07:18:00,
2013-08-22 02:23:00,72.3,67.9,30.10,South,180,0.0,0.0,86,0.00,,,0.00,WUHU21623XXSP,2013-08-22 07:23:00,
2013-08-22 02:28:00,72.5,68.1,30.10,SSW,202,0.0,0.0,86,0.00,,,0.00,WUHU21623XXSP,2013-08-22 07:28:00,
2013-08-22 02:33:00,72.5,68.1,30.10,South,180,0.0,0.0,86,0.00,,,0.00,WUHU21623XXSP,2013-08-22 07:33:00,
2013-08-22 02:38:00,72.7,68.3,30.10,SSE,157,0.0,0.0,86,0.00,,,0.00,WUHU21623XXSP,2013-08-22 07:38:00,
2013-08-22 02:43:00,72.5,68.1,30.10,SSE,157,0.0,0.0,86,0.00,,,0.00,WUHU21623XXSP,2013-08-22 07:43:00,
2013-08-22 02:48:00,72.5,68.1,30.10,SSE,157,0.0,0.0,86,0.00,,,0.00,WUHU21623XXSP,2013-08-22 07:48:00,
2013-08-22 02:53:00,72.3,67.9,30.10,South,180,0.0,0.0,86,0.00,,,0.00,WUHU21623XXSP,2013-08-22 07:53:00,
2013-08-22 02:58:00,72.3,67.9,30.10,South,180,0.0,0.0,86,0.00,,,0.00,WUHU21623XXSP,2013-08-22 07:58:00,
2013-08-22 03:03:00,72.3,67.9,30.09,South,180,1.1,1.1,86,0.00,,,0.00,WUHU21623XXSP,2013-08-22 08:03:00,
2013-08-22 03:08:00,72.3,68.2,30.10,South,180,0.0,1.8,87,0.00,,,0.00,WUHU21623XXSP,2013-08-22 08:08:00,
2013-08-22 03:13:00,72.5,68.4,30.10,South,180,0.0,1.8,87,0.00,,,0.00,WUHU21623XXSP,2013-08-22 08:13:00,
2013-08-22 03:18:00,72.5,68.4,30.10,South,180,0.0,0.0,87,0.00,,,0.00,WUHU21623XXSP,2013-08-22 08:18:00,
2013-08-22 03:23:00,72.5,68.4,30.09,South,180,0.0,0.0,87,0.00,,,0.00,WUHU21623XXSP,2013-08-22 08:23:00,
2013-08-22 03:28:00,72.5,68.4,30.09,South,180,0.0,0.0,87,0.00,,,0.00,WUHU21623XXSP,2013-08-22 08:28:00,
2013-08-22 03:33:00,72.5,68.4,30.10,South,180,0.0,0.0,87,0.00,,,0.00,WUHU21623XXSP,2013-08-22 08:33:00,
2013-08-22 03:38:00,72.3,68.2,30.10,South,180,0.0,0.0,87,0.00,,,0.00,WUHU21623XXSP,2013-08-22 08:38:00,
2013-08-22 03:43:00,72.3,68.2,30.10,South,180,0.0,0.0,87,0.00,,,0.00,WUHU21623XXSP,2013-08-22 08:43:00,
2013-08-22 03:48:00,72.1,68.0,30.10,South,180,0.0,0.0,87,0.00,,,0.00,WUHU21623XXSP,2013-08-22 08:48:00,
2013-08-22 03:53:00,72.1,68.0,30.10,South,180,0.0,0.0,87,0.00,,,0.00,WUHU21623XXSP,2013-08-22 08:53:00,
2013-08-22 03:58:00,72.0,67.9,30.10,South,180,0.0,0.0,87,0.00,,,0.00,WUHU21623XXSP,2013-08-22 08:58:00,
2013-08-22 04:03:00,72.0,67.9,30.10,South,180,0.0,0.0,87,0.00,,,0.00,WUHU21623XXSP,2013-08-22 09:03:00,
2013-08-22 04:08:00,71.8,67.7,30.10,South,180,0.0,0.0,87,0.00,,,0.00,WUHU21623XXSP,2013-08-22 09:08:00,
2013-08-22 04:13:00,71.8,67.7,30.10,South,180,0.0,0.0,87,0.00,,,0.00,WUHU21623XXSP,2013-08-22 09:13:00,
2013-08-22 04:18:00,71.8,67.7,30.10,South,180,0.0,0.0,87,0.00,,,0.00,WUHU21623XXSP,2013-08-22 09:18:00,
2013-08-22 04:23:00,71.8,67.7,30.10,South,180,0.0,0.0,87,0.00,,,0.00,WUHU21623XXSP,2013-08-22 09:23:00,
2013-08-22 04:28:00,71.8,67.7,30.10,South,180,0.0,0.0,87,0.00,,,0.00,WUHU21623XXSP,2013-08-22 09:28:00,
2013-08-22 04:33:00,71.8,67.7,30.10,South,180,0.0,0.0,87,0.00,,,0.00,WUHU21623XXSP,2013-08-22 09:33:00,
2013-08-22 04:38:00,71.8,67.7,30.11,South,180,0.0,0.0,87,0.00,,,0.00,WUHU21623XXSP,2013-08-22 09:38:00,
2013-08-22 04:43:00,71.8,67.7,30.11,South,180,0.0,0.0,87,0.00,,,0.00,WUHU21623XXSP,2013-08-22 09:43:00,
2013-08-22 04:48:00,71.6,67.5,30.11,South,180,0.0,0.0,87,0.00,,,0.00,WUHU21623XXSP,2013-08-22 09:48:00,
2013-08-22 04:53:00,71.4,67.3,30.11,South,180,0.0,0.0,87,0.00,,,0.00,WUHU21623XXSP,2013-08-22 09:53:00,
2013-08-22 04:58:00,71.4,67.3,30.11,South,180,0.0,0.0,87,0.00,,,0.00,WUHU21623XXSP,2013-08-22 09:58:00,
2013-08-22 05:03:00,71.2,67.1,30.11,South,180,0.0,0.0,87,0.00,,,0.00,WUHU21623XXSP,2013-08-22 10:03:00,
2013-08-22 05:08:00,71.2,67.1,30.11,South,180,0.0,0.0,87,0.00,,,0.00,WUHU21623XXSP,2013-08-22 10:08:00,
2013-08-22 05:13:00,71.2,67.1,30.11,South,180,0.0,0.0,87,0.00,,,0.00,WUHU21623XXSP,2013-08-22 10:13:00,
2013-08-22 05:18:00,71.2,67.1,30.11,South,180,0.0,0.0,87,0.00,,,0.00,WUHU21623XXSP,2013-08-22 10:18:00,
2013-08-22 05:23:00,71.2,67.1,30.12,South,180,0.0,0.0,87,0.00,,,0.00,WUHU21623XXSP,2013-08-22 10:23:00,
2013-08-22 05:28:00,71.2,67.1,30.12,South,180,0.0,0.0,87,0.00,,,0.00,WUHU21623XXSP,2013-08-22 10:28:00,
2013-08-22 05:33:00,71.2,67.1,30.13,South,180,0.0,0.0,87,0.00,,,0.00,WUHU21623XXSP,2013-08-22 10:33:00,
2013-08-22 05:38:00,71.2,67.1,30.12,South,180,0.0,0.0,87,0.00,,,0.00,WUHU21623XXSP,2013-08-22 10:38:00,
2013-08-22 05:43:00,71.2,67.1,30.12,South,180,0.0,0.0,87,0.00,,,0.00,WUHU21623XXSP,2013-08-22 10:43:00,
2013-08-22 05:48:00,71.2,67.1,30.12,South,180,0.0,0.0,87,0.00,,,0.00,WUHU21623XXSP,2013-08-22 10:48:00,
2013-08-22 05:50:00,71.1,67.0,30.13,South,180,0.0,0.0,87,0.00,,,0.00,WUHU21623XXSP,2013-08-22 10:50:00,
2013-08-22 05:51:00,71.1,67.0,30.13,South,180,0.0,0.0,87,0.00,,,0.00,WUHU21623XXSP,2013-08-22 10:51:00,
2013-08-22 05:52:00,71.1,67.0,30.12,South,180,0.0,0.0,87,0.00,,,0.00,WUHU21623XXSP,2013-08-22 10:52:00,
2013-08-22 05:53:00,71.1,67.0,30.13,South,180,0.0,0.0,87,0.00,,,0.00,WUHU21623XXSP,2013-08-22 10:53:00,
2013-08-22 05:55:00,70.9,66.8,30.13,South,180,0.0,0.0,87,0.00,,,0.00,WUHU21623XXSP,2013-08-22 10:55:00,
2013-08-22 05:56:00,70.9,66.8,30.13,South,180,0.0,0.0,87,0.00,,,0.00,WUHU21623XXSP,2013-08-22 10:56:00,
2013-08-22 05:57:00,70.9,66.8,30.13,South,180,0.0,0.0,87,0.00,,,0.00,WUHU21623XXSP,2013-08-22 10:57:00,
2013-08-22 05:58:00,71.1,67.0,30.13,South,180,0.0,0.0,87,0.00,,,0.00,WUHU21623XXSP,2013-08-22 10:58:00,
2013-08-22 06:00:00,70.9,66.8,30.13,South,180,0.0,0.0,87,0.00,,,0.00,WUHU21623XXSP,2013-08-22 11:00:00,
2013-08-22 06:01:00,70.9,66.8,30.13,South,180,0.0,0.0,87,0.00,,,0.00,WUHU21623XXSP,2013-08-22 11:01:00,
2013-08-22 06:02:00,70.9,66.8,30.13,South,180,0.0,0.0,87,0.00,,,0.00,WUHU21623XXSP,2013-08-22 11:02:00,
2013-08-22 06:03:00,70.9,66.8,30.13,South,180,0.0,0.0,87,0.00,,,0.00,WUHU21623XXSP,2013-08-22 11:03:00,
2013-08-22 06:04:00,70.9,66.8,30.13,South,180,0.0,0.0,87,0.00,,,0.00,WUHU21623XXSP,2013-08-22 11:04:00,
2013-08-22 06:05:00,70.9,66.8,30.13,South,180,0.0,0.0,87,0.00,,,0.00,WUHU21623XXSP,2013-08-22 11:05:00,
2013-08-22 06:07:00,70.9,66.8,30.13,South,180,0.0,0.0,87,0.00,,,0.00,WUHU21623XXSP,2013-08-22 11:07:00,
2013-08-22 06:08:00,70.9,66.8,30.13,South,180,0.0,0.0,87,0.00,,,0.00,WUHU21623XXSP,2013-08-22 11:08:00,
2013-08-22 06:09:00,70.9,66.8,30.13,South,180,0.0,0.0,87,0.00,,,0.00,WUHU21623XXSP,2013-08-22 11:09:00,
2013-08-22 06:11:00,70.9,66.8,30.13,South,180,0.0,0.0,87,0.00,,,0.00,WUHU21623XXSP,2013-08-22 11:11:00,
2013-08-22 06:12:00,70.9,66.8,30.14,South,180,0.0,0.0,87,0.00,,,0.00,WUHU21623XXSP,2013-08-22 11:12:00,
2013-08-22 06:13:00,70.9,66.8,30.13,South,180,0.0,0.0,87,0.00,,,0.00,WUHU21623XXSP,2013-08-22 11:13:00,
2013-08-22 06:14:00,70.9,66.8,30.14,South,180,0.0,0.0,87,0.00,,,0.00,WUHU21623XXSP,2013-08-22 11:14:00,
2013-08-22 06:15:00,70.9,66.8,30.14,South,180,0.0,0.0,87,0.00,,,0.00,WUHU21623XXSP,2013-08-22 11:15:00,
2013-08-22 06:16:00,70.9,66.8,30.13,South,180,0.0,0.0,87,0.00,,,0.00,WUHU21623XXSP,2013-08-22 11:16:00,
2013-08-22 06:18:00,70.9,66.8,30.14,South,180,0.0,0.0,87,0.00,,,0.00,WUHU21623XXSP,2013-08-22 11:18:00,
2013-08-22 06:19:00,70.9,66.8,30.14,South,180,0.0,0.0,87,0.00,,,0.00,WUHU21623XXSP,2013-08-22 11:19:00,
2013-08-22 06:20:00,70.9,66.8,30.13,South,180,0.0,0.0,87,0.00,,,0.00,WUHU21623XXSP,2013-08-22 11:20:00,
2013-08-22 06:21:00,70.9,66.8,30.13,South,180,0.0,0.0,87,0.00,,,0.00,WUHU21623XXSP,2013-08-22 11:21:00,
2013-08-22 06:22:00,70.9,66.8,30.13,South,180,0.0,0.0,87,0.00,,,0.00,WUHU21623XXSP,2013-08-22 11:22:00,
2013-08-22 06:23:00,70.7,66.6,30.13,South,180,0.0,0.0,87,0.00,,,0.00,WUHU21623XXSP,2013-08-22 11:23:00,
2013-08-22 06:24:00,70.7,66.6,30.13,South,180,0.0,0.0,87,0.00,,,0.00,WUHU21623XXSP,2013-08-22 11:24:00,
2013-08-22 06:25:00,70.7,66.6,30.13,South,180,0.0,0.0,87,0.00,,,0.00,WUHU21623XXSP,2013-08-22 11:25:00,
2013-08-22 06:26:00,70.7,66.6,30.13,South,180,0.0,0.0,87,0.00,,,0.00,WUHU21623XXSP,2013-08-22 11:26:00,
2013-08-22 06:27:00,70.7,66.6,30.13,South,180,0.0,0.0,87,0.00,,,0.00,WUHU21623XXSP,2013-08-22 11:27:00,
2013-08-22 06:28:00,70.7,66.6,30.13,South,180,0.0,0.0,87,0.00,,,0.00,WUHU21623XXSP,2013-08-22 11:28:00,
2013-08-22 06:29:00,70.7,66.6,30.13,South,180,0.0,0.0,87,0.00,,,0.00,WUHU21623XXSP,2013-08-22 11:29:00,
2013-08-22 06:30:00,70.7,66.6,30.13,South,180,0.0,0.0,87,0.00,,,0.00,WUHU21623XXSP,2013-08-22 11:30:00,
2013-08-22 06:32:00,70.7,66.6,30.13,South,180,0.0,0.0,87,0.00,,,0.00,WUHU21623XXSP,2013-08-22 11:32:00,
2013-08-22 06:33:00,70.7,66.6,30.13,South,180,0.0,0.0,87,0.00,,,0.00,WUHU21623XXSP,2013-08-22 11:33:00,
2013-08-22 06:34:00,70.7,66.6,30.14,South,180,0.0,0.0,87,0.00,,,0.00,WUHU21623XXSP,2013-08-22 11:34:00,
2013-08-22 06:35:00,70.7,67.0,30.13,South,180,0.0,0.0,88,0.00,,,0.00,WUHU21623XXSP,2013-08-22 11:35:00,
2013-08-22 06:36:00,70.9,66.8,30.14,South,180,0.0,0.0,87,0.00,,,0.00,WUHU21623XXSP,2013-08-22 11:36:00,
2013-08-22 06:37:00,70.9,67.2,30.14,South,180,0.0,0.0,88,0.00,,,0.00,WUHU21623XXSP,2013-08-22 11:37:00,
2013-08-22 06:39:00,70.9,67.2,30.14,South,180,0.0,0.0,88,0.00,,,0.00,WUHU21623XXSP,2013-08-22 11:39:00,
2013-08-22 06:40:00,70.9,67.2,30.14,South,180,0.0,0.0,88,0.00,,,0.00,WUHU21623XXSP,2013-08-22 11:40:00,
2013-08-22 06:41:00,70.9,67.2,30.14,South,180,0.0,0.0,88,0.00,,,0.00,WUHU21623XXSP,2013-08-22 11:41:00,
2013-08-22 06:42:00,70.9,67.2,30.14,South,180,0.0,0.0,88,0.00,,,0.00,WUHU21623XXSP,2013-08-22 11:42:00,
2013-08-22 06:43:00,70.9,67.2,30.14,South,180,0.0,0.0,88,0.00,,,0.00,WUHU21623XXSP,2013-08-22 11:43:00,
2013-08-22 06:44:00,70.9,67.2,30.14,SSE,157,0.0,0.0,88,0.00,,,0.00,WUHU21623XXSP,2013-08-22 11:44:00,
2013-08-22 06:45:00,70.9,67.2,30.14,SE,135,0.7,0.7,88,0.00,,,0.00,WUHU21623XXSP,2013-08-22 11:45:00,
2013-08-22 06:47:00,70.9,67.2,30.14,SE,135,0.7,0.7,88,0.00,,,0.00,WUHU21623XXSP,2013-08-22 11:47:00,
2013-08-22 06:48:00,71.2,67.5,30.14,South,180,0.0,0.7,88,0.00,,,0.00,WUHU21623XXSP,2013-08-22 11:48:00,
2013-08-22 06:49:00,71.2,67.5,30.14,South,180,0.0,0.7,88,0.00,,,0.00,WUHU21623XXSP,2013-08-22 11:49:00,
2013-08-22 06:50:00,71.2,67.5,30.14,South,180,0.0,0.7,88,0.00,,,0.00,WUHU21623XXSP,2013-08-22 11:50:00,
2013-08-22 06:51:00,71.2,67.5,30.14,South,180,0.0,0.7,88,0.00,,,0.00,WUHU21623XXSP,2013-08-22 11:51:00,
2013-08-22 06:52:00,71.2,67.5,30.14,South,180,0.0,0.7,88,0.00,,,0.00,WUHU21623XXSP,2013-08-22 11:52:00,
2013-08-22 06:54:00,71.2,67.5,30.14,South,180,0.0,0.7,88,0.00,,,0.00,WUHU21623XXSP,2013-08-22 11:54:00,
2013-08-22 06:55:00,71.4,67.7,30.14,SSE,157,0.0,0.7,88,0.00,,,0.00,WUHU21623XXSP,2013-08-22 11:55:00,
2013-08-22 06:57:00,71.4,67.7,30.14,SE,135,0.0,0.0,88,0.00,,,0.00,WUHU21623XXSP,2013-08-22 11:57:00,
2013-08-22 06:58:00,71.4,67.7,30.14,SSE,157,0.0,0.0,88,0.00,,,0.00,WUHU21623XXSP,2013-08-22 11:58:00,
2013-08-22 06:59:00,71.6,67.9,30.14,South,180,0.0,0.0,88,0.00,,,0.00,WUHU21623XXSP,2013-08-22 11:59:00,
2013-08-22 07:00:00,71.6,67.9,30.14,SSE,157,0.0,0.0,88,0.00,,,0.00,WUHU21623XXSP,2013-08-22 12:00:00,
2013-08-22 07:01:00,71.6,67.9,30.14,South,180,0.9,0.9,88,0.00,,,0.00,WUHU21623XXSP,2013-08-22 12:01:00,
2013-08-22 07:03:00,71.8,68.1,30.14,South,180,0.0,0.9,88,0.00,,,0.00,WUHU21623XXSP,2013-08-22 12:03:00,
2013-08-22 07:05:00,71.8,68.1,30.14,SSE,157,0.0,0.9,88,0.00,,,0.00,WUHU21623XXSP,2013-08-22 12:05:00,
2013-08-22 07:06:00,71.8,68.1,30.14,South,180,0.0,0.9,88,0.00,,,0.00,WUHU21623XXSP,2013-08-22 12:06:00,
2013-08-22 07:08:00,72.1,68.4,30.14,South,180,0.0,0.9,88,0.00,,,0.00,WUHU21623XXSP,2013-08-22 12:08:00,
2013-08-22 07:09:00,72.1,68.4,30.14,SSE,157,0.0,0.9,88,0.00,,,0.00,WUHU21623XXSP,2013-08-22 12:09:00,
2013-08-22 07:10:00,72.3,68.5,30.14,SSW,202,0.0,0.0,88,0.00,,,0.00,WUHU21623XXSP,2013-08-22 12:10:00,
2013-08-22 07:12:00,72.5,68.7,30.14,South,180,0.0,0.0,88,0.00,,,0.00,WUHU21623XXSP,2013-08-22 12:12:00,
2013-08-22 07:14:00,72.7,68.9,30.14,South,180,0.0,0.0,88,0.00,,,0.00,WUHU21623XXSP,2013-08-22 12:14:00,
2013-08-22 07:15:00,73.0,69.2,30.14,SSE,157,0.0,0.0,88,0.00,,,0.00,WUHU21623XXSP,2013-08-22 12:15:00,
2013-08-22 07:17:00,73.2,69.4,30.14,South,180,0.4,0.4,88,0.00,,,0.00,WUHU21623XXSP,2013-08-22 12:17:00,
2013-08-22 07:18:00,73.2,69.4,30.14,South,180,0.0,0.4,88,0.00,,,0.00,WUHU21623XXSP,2013-08-22 12:18:00,
2013-08-22 07:27:00,74.3,70.5,30.14,South,180,0.0,2.7,88,0.00,,,0.00,WUHU21623XXSP,2013-08-22 12:27:00,
2013-08-22 07:32:00,75.0,71.2,30.14,South,186,3.2,4.9,88,0.00,,,0.00,WUHU21623XXSP,2013-08-22 12:32:00,
2013-08-22 07:37:00,75.6,71.8,30.14,SSW,202,0.0,4.9,88,0.00,,,0.00,WUHU21623XXSP,2013-08-22 12:37:00,
2013-08-22 07:42:00,76.6,72.5,30.14,SSW,202,0.0,1.6,87,0.00,,,0.00,WUHU21623XXSP,2013-08-22 12:42:00,
2013-08-22 07:47:00,77.4,73.6,30.14,SSW,202,0.0,0.0,88,0.00,,,0.00,WUHU21623XXSP,2013-08-22 12:47:00,
2013-08-22 07:52:00,78.6,74.4,30.14,South,180,0.0,0.0,87,0.00,,,0.00,WUHU21623XXSP,2013-08-22 12:52:00,
2013-08-22 07:57:00,79.5,75.3,30.14,South,180,0.4,0.4,87,0.00,,,0.00,WUHU21623XXSP,2013-08-22 12:57:00,
2013-08-22 08:00:00,79.9,75.4,30.15,SSW,202,0.0,0.4,86,0.00,,,0.00,WUHU21623XXSP,2013-08-22 13:00:00,
2013-08-22 08:05:00,80.2,75.7,30.15,South,180,1.1,1.3,86,0.00,,,0.00,WUHU21623XXSP,2013-08-22 13:05:00,
2013-08-22 08:10:00,80.8,75.6,30.15,SSW,193,0.9,2.7,84,0.00,,,0.00,WUHU21623XXSP,2013-08-22 13:10:00,
2013-08-22 08:15:00,81.0,75.4,30.15,South,185,1.6,2.9,83,0.00,,,0.00,WUHU21623XXSP,2013-08-22 13:15:00,
2013-08-22 08:20:00,80.6,74.7,30.15,South,180,0.0,3.8,82,0.00,,,0.00,WUHU21623XXSP,2013-08-22 13:20:00,
2013-08-22 08:25:00,81.0,75.4,30.15,SW,224,1.9,3.8,83,0.00,,,0.00,WUHU21623XXSP,2013-08-22 13:25:00,
2013-08-22 08:30:00,81.9,76.0,30.15,SSW,202,6.3,6.3,82,0.00,,,0.00,WUHU21623XXSP,2013-08-22 13:30:00,
2013-08-22 08:35:00,82.6,76.3,30.14,WSW,241,4.0,7.2,81,0.00,,,0.00,WUHU21623XXSP,2013-08-22 13:35:00,
2013-08-22 08:40:00,83.1,76.8,30.14,SW,221,2.3,7.2,81,0.00,,,0.00,WUHU21623XXSP,2013-08-22 13:40:00,
2013-08-22 08:45:00,83.8,77.1,30.14,WSW,243,2.6,6.7,80,0.00,,,0.00,WUHU21623XXSP,2013-08-22 13:45:00,
2013-08-22 08:50:00,84.4,77.7,30.15,SW,225,0.6,6.7,80,0.00,,,0.00,WUHU21623XXSP,2013-08-22 13:50:00,
2013-08-22 08:55:00,84.9,77.8,30.14,SW,225,2.0,3.8,79,0.00,,,0.00,WUHU21623XXSP,2013-08-22 13:55:00,
2013-08-22 09:00:00,85.6,78.1,30.14,SW,221,2.7,4.5,78,0.00,,,0.00,WUHU21623XXSP,2013-08-22 14:00:00,
2013-08-22 09:05:00,86.2,78.3,30.14,SW,222,1.7,4.9,77,0.00,,,0.00,WUHU21623XXSP,2013-08-22 14:05:00,
2013-08-22 09:10:00,86.5,78.2,30.14,SW,225,3.4,5.8,76,0.00,,,0.00,WUHU21623XXSP,2013-08-22 14:10:00,
2013-08-22 09:15:00,87.1,78.8,30.14,WNW,292,0.0,5.8,76,0.00,,,0.00,WUHU21623XXSP,2013-08-22 14:15:00,
2013-08-22 09:20:00,87.4,78.7,30.14,SW,228,1.1,2.2,75,0.00,,,0.00,WUHU21623XXSP,2013-08-22 14:20:00,
2013-08-22 09:25:00,88.0,78.9,30.14,WSW,247,0.0,2.2,74,0.00,,,0.00,WUHU21623XXSP,2013-08-22 14:25:00,
2013-08-22 09:30:00,88.3,79.2,30.14,West,270,0.0,1.3,74,0.00,,,0.00,WUHU21623XXSP,2013-08-22 14:30:00,
2013-08-22 09:35:00,88.3,78.8,30.14,SW,225,1.8,1.8,73,0.00,,,0.00,WUHU21623XXSP,2013-08-22 14:35:00,
2013-08-22 09:40:00,88.5,79.0,30.14,WSW,244,1.7,2.2,73,0.00,,,0.00,WUHU21623XXSP,2013-08-22 14:40:00,
2013-08-22 09:45:00,88.9,79.4,30.13,WSW,258,2.7,6.5,73,0.00,,,0.00,WUHU21623XXSP,2013-08-22 14:45:00,
2013-08-22 09:50:00,89.2,79.7,30.13,West,270,0.0,6.5,73,0.00,,,0.00,WUHU21623XXSP,2013-08-22 14:50:00,
2013-08-22 09:55:00,89.8,79.8,30.13,NW,315,0.0,0.0,72,0.00,,,0.00,WUHU21623XXSP,2013-08-22 14:55:00,
2013-08-22 10:00:00,90.3,80.3,30.13,WSW,237,2.5,5.4,72,0.00,,,0.00,WUHU21623XXSP,2013-08-22 15:00:00,
2013-08-22 10:05:00,90.5,79.7,30.13,SSW,202,0.7,5.4,70,0.00,,,0.00,WUHU21623XXSP,2013-08-22 15:05:00,
2013-08-22 10:10:00,90.9,80.0,30.13,WSW,247,1.8,3.8,70,0.00,,,0.00,WUHU21623XXSP,2013-08-22 15:10:00,
2013-08-22 10:15:00,91.0,80.1,30.14,WSW,247,2.2,4.9,70,0.00,,,0.00,WUHU21623XXSP,2013-08-22 15:15:00,
2013-08-22 10:20:00,91.2,80.3,30.14,WNW,292,0.0,4.9,70,0.00,,,0.00,WUHU21623XXSP,2013-08-22 15:20:00,
2013-08-22 10:25:00,91.6,80.7,30.14,West,270,1.5,3.6,70,0.00,,,0.00,WUHU21623XXSP,2013-08-22 15:25:00,
2013-08-22 10:30:00,91.9,80.6,30.14,West,270,0.0,4.9,69,0.00,,,0.00,WUHU21623XXSP,2013-08-22 15:30:00,
2013-08-22 10:35:00,92.3,80.5,30.14,ENE,67,0.0,4.9,68,0.00,,,0.00,WUHU21623XXSP,2013-08-22 15:35:00,
2013-08-22 10:40:00,92.1,79.9,30.14,NW,315,0.7,0.7,67,0.00,,,0.00,WUHU21623XXSP,2013-08-22 15:40:00,
2013-08-22 10:45:00,92.1,80.3,30.14,WSW,247,1.8,1.8,68,0.00,,,0.00,WUHU21623XXSP,2013-08-22 15:45:00,
2013-08-22 10:50:00,92.7,80.9,30.14,WNW,292,0.0,1.8,68,0.00,,,0.00,WUHU21623XXSP,2013-08-22 15:50:00,
2013-08-22 10:55:00,92.8,79.6,30.14,SSE,157,0.0,0.7,65,0.00,,,0.00,WUHU21623XXSP,2013-08-22 15:55:00,
2013-08-22 11:00:00,92.5,79.8,30.14,NNE,22,3.4,3.4,66,0.00,,,0.00,WUHU21623XXSP,2013-08-22 16:00:00,
2013-08-22 11:05:00,91.8,78.7,30.13,East,90,0.0,5.8,65,0.00,,,0.00,WUHU21623XXSP,2013-08-22 16:05:00,
2013-08-22 11:10:00,90.7,78.1,30.14,West,270,0.0,5.8,66,0.00,,,0.00,WUHU21623XXSP,2013-08-22 16:10:00,
2013-08-22 11:15:00,90.1,78.4,30.13,WNW,292,0.0,2.2,68,0.00,,,0.00,WUHU21623XXSP,2013-08-22 16:15:00,
2013-08-22 11:20:00,90.7,79.0,30.13,SW,225,0.0,2.2,68,0.00,,,0.00,WUHU21623XXSP,2013-08-22 16:20:00,
2013-08-22 11:25:00,91.0,78.8,30.13,WNW,292,1.9,2.9,67,0.00,,,0.00,WUHU21623XXSP,2013-08-22 16:25:00,
2013-08-22 11:30:00,91.0,78.8,30.13,WNW,292,0.7,4.0,67,0.00,,,0.00,WUHU21623XXSP,2013-08-22 16:30:00,
2013-08-22 11:35:00,91.2,79.0,30.13,West,270,0.0,4.0,67,0.00,,,0.00,WUHU21623XXSP,2013-08-22 16:35:00,
2013-08-22 11:40:00,91.4,79.2,30.13,SSW,202,0.8,0.9,67,0.00,,,0.00,WUHU21623XXSP,2013-08-22 16:40:00,
2013-08-22 11:45:00,91.8,79.1,30.13,WSW,247,0.0,1.3,66,0.00,,,0.00,WUHU21623XXSP,2013-08-22 16:45:00,
2013-08-22 11:50:00,91.8,79.1,30.13,WNW,292,0.0,1.3,66,0.00,,,0.00,WUHU21623XXSP,2013-08-22 16:50:00,
2013-08-22 11:55:00,91.8,79.6,30.12,West,270,0.0,0.7,67,0.00,,,0.00,WUHU21623XXSP,2013-08-22 16:55:00,
2013-08-22 12:00:00,92.5,80.7,30.12,WSW,239,1.5,2.7,68,0.00,,,0.00,WUHU21623XXSP,2013-08-22 17:00:00,
2013-08-22 12:05:00,93.0,80.7,30.12,SSW,211,1.6,5.6,67,0.00,,,0.00,WUHU21623XXSP,2013-08-22 17:05:00,
2013-08-22 12:10:00,93.7,80.9,30.11,NW,315,1.5,5.6,66,0.00,,,0.00,WUHU21623XXSP,2013-08-22 17:10:00,
2013-08-22 12:15:00,93.7,79.5,30.11,NNW,342,2.2,4.0,63,0.00,,,0.00,WUHU21623XXSP,2013-08-22 17:15:00,
2013-08-22 12:20:00,93.4,79.7,30.12,WSW,257,2.3,6.5,64,0.00,,,0.00,WUHU21623XXSP,2013-08-22 17:20:00,
2013-08-22 12:25:00,93.6,79.9,30.12,WNW,294,2.4,6.5,64,0.00,,,0.00,WUHU21623XXSP,2013-08-22 17:25:00,
2013-08-22 12:30:00,93.7,79.0,30.12,ESE,106,0.9,4.3,62,0.00,,,0.00,WUHU21623XXSP,2013-08-22 17:30:00,
2013-08-22 12:35:00,93.4,78.8,30.11,SW,232,2.0,3.4,62,0.00,,,0.00,WUHU21623XXSP,2013-08-22 17:35:00,
2013-08-22 12:40:00,93.4,79.7,30.11,WSW,243,2.2,4.9,64,0.00,,,0.00,WUHU21623XXSP,2013-08-22 17:40:00,
2013-08-22 12:45:00,93.6,79.4,30.11,NW,309,3.7,6.5,63,0.00,,,0.00,WUHU21623XXSP,2013-08-22 17:45:00,
2013-08-22 12:50:00,93.9,78.2,30.10,SW,223,3.0,6.5,60,0.00,,,0.00,WUHU21623XXSP,2013-08-22 17:50:00,
2013-08-22 12:55:00,93.7,77.5,30.10,WSW,240,2.9,5.4,59,0.00,,,0.00,WUHU21623XXSP,2013-08-22 17:55:00,
2013-08-22 13:00:00,93.7,79.5,30.10,WSW,257,2.2,5.4,63,0.00,,,0.00,WUHU21623XXSP,2013-08-22 18:00:00,
2013-08-22 13:05:00,94.3,80.1,30.10,NNW,337,2.2,5.4,63,0.00,,,0.00,WUHU21623XXSP,2013-08-22 18:05:00,
2013-08-22 13:10:00,93.9,79.2,30.10,NNW,337,0.0,6.0,62,0.00,,,0.00,WUHU21623XXSP,2013-08-22 18:10:00,
2013-08-22 13:15:00,93.7,78.0,30.10,NW,308,3.7,6.0,60,0.00,,,0.00,WUHU21623XXSP,2013-08-22 18:15:00,
2013-08-22 13:20:00,93.0,78.4,30.10,NNW,338,1.6,5.4,62,0.00,,,0.00,WUHU21623XXSP,2013-08-22 18:20:00,
2013-08-22 13:25:00,93.0,78.9,30.09,North,0,0.0,2.2,63,0.00,,,0.00,WUHU21623XXSP,2013-08-22 18:25:00,
2013-08-22 13:30:00,93.4,77.8,30.09,WSW,247,0.0,1.3,60,0.00,,,0.00,WUHU21623XXSP,2013-08-22 18:30:00,
2013-08-22 13:35:00,93.2,76.5,30.09,NNE,30,2.1,4.0,58,0.00,,,0.00,WUHU21623XXSP,2013-08-22 18:35:00,
2013-08-22 13:40:00,92.5,75.3,30.09,NNE,22,0.7,4.7,57,0.00,,,0.00,WUHU21623XXSP,2013-08-22 18:40:00,
2013-08-22 13:45:00,92.1,75.5,30.09,NNE,22,0.0,4.7,58,0.00,,,0.00,WUHU21623XXSP,2013-08-22 18:45:00,
2013-08-22 13:50:00,92.5,77.4,30.09,NNW,337,2.5,8.9,61,0.00,,,0.00,WUHU21623XXSP,2013-08-22 18:50:00,
2013-08-22 13:55:00,93.0,77.9,30.09,SW,225,0.9,8.9,61,0.00,,,0.00,WUHU21623XXSP,2013-08-22 18:55:00,
2013-08-22 14:00:00,93.4,77.2,30.09,WSW,247,0.0,2.9,59,0.00,,,0.00,WUHU21623XXSP,2013-08-22 19:00:00,
2013-08-22 14:05:00,93.2,77.1,30.08,South,188,1.2,2.9,59,0.00,,,0.00,WUHU21623XXSP,2013-08-22 19:05:00,
2013-08-22 14:10:00,92.8,77.2,30.08,SSW,202,0.0,2.5,60,0.00,,,0.00,WUHU21623XXSP,2013-08-22 19:10:00,
2013-08-22 14:15:00,92.5,76.9,30.08,SSE,157,0.0,0.0,60,0.00,,,0.00,WUHU21623XXSP,2013-08-22 19:15:00,
2013-08-22 14:20:00,92.3,76.7,30.08,NNW,337,3.6,6.7,60,0.00,,,0.00,WUHU21623XXSP,2013-08-22 19:20:00,
2013-08-22 14:25:00,92.5,77.9,30.08,NE,36,5.4,8.3,62,0.00,,,0.00,WUHU21623XXSP,2013-08-22 19:25:00,
2013-08-22 14:30:00,92.3,76.2,30.08,WNW,290,1.5,8.3,59,0.00,,,0.00,WUHU21623XXSP,2013-08-22 19:30:00,
2013-08-22 14:35:00,92.3,76.2,30.08,North,0,6.5,7.4,59,0.00,,,0.00,WUHU21623XXSP,2013-08-22 19:35:00,
2013-08-22 14:40:00,92.1,76.5,30.08,NNW,345,2.9,8.3,60,0.00,,,0.00,WUHU21623XXSP,2013-08-22 19:40:00,
2013-08-22 14:45:00,92.5,75.9,30.08,North,0,6.5,8.3,58,0.00,,,0.00,WUHU21623XXSP,2013-08-22 19:45:00,
2013-08-22 14:50:00,91.9,74.8,30.08,North,0,6.0,7.4,57,0.00,,,0.00,WUHU21623XXSP,2013-08-22 19:50:00,
2013-08-22 14:55:00,91.4,74.3,30.08,NNW,337,0.0,7.4,57,0.00,,,0.00,WUHU21623XXSP,2013-08-22 19:55:00,
2013-08-22 15:00:00,91.4,75.4,30.08,NW,315,0.0,5.4,59,0.00,,,0.00,WUHU21623XXSP,2013-08-22 20:00:00,
2013-08-22 15:05:00,91.9,75.3,30.07,North,0,1.8,3.6,58,0.00,,,0.00,WUHU21623XXSP,2013-08-22 20:05:00,
2013-08-22 15:10:00,91.8,74.7,30.06,NNW,337,4.7,5.8,57,0.00,,,0.00,WUHU21623XXSP,2013-08-22 20:10:00,
2013-08-22 15:15:00,91.9,75.3,30.06,NW,315,3.0,7.8,58,0.00,,,0.00,WUHU21623XXSP,2013-08-22 20:15:00,
2013-08-22 15:20:00,92.5,75.3,30.07,NNE,32,4.6,7.8,57,0.00,,,0.00,WUHU21623XXSP,2013-08-22 20:20:00,
2013-08-22 15:25:00,92.1,73.9,30.06,NNE,22,2.9,9.4,55,0.00,,,0.00,WUHU21623XXSP,2013-08-22 20:25:00,
2013-08-22 15:30:00,91.6,74.0,30.06,NW,315,0.0,9.4,56,0.00,,,0.00,WUHU21623XXSP,2013-08-22 20:30:00,
2013-08-22 15:35:00,91.8,75.2,30.06,NNW,337,3.1,5.6,58,0.00,,,0.00,WUHU21623XXSP,2013-08-22 20:35:00,
2013-08-22 15:40:00,91.8,75.7,30.06,North,0,4.7,11.6,59,0.00,,,0.00,WUHU21623XXSP,2013-08-22 20:40:00,
2013-08-22 15:45:00,91.2,75.7,30.06,North,0,6.9,11.6,60,0.00,,,0.00,WUHU21623XXSP,2013-08-22 20:45:00,
2013-08-22 15:50:00,91.0,75.5,30.05,North,3,5.7,7.2,60,0.00,,,0.00,WUHU21623XXSP,2013-08-22 20:50:00,
2013-08-22 15:55:00,90.7,75.2,30.05,North,0,5.6,8.1,60,0.00,,,0.00,WUHU21623XXSP,2013-08-22 20:55:00,
2013-08-22 16:00:00,91.0,76.0,30.05,NNE,22,6.7,8.1,61,0.00,,,0.00,WUHU21623XXSP,2013-08-22 21:00:00,
2013-08-22 16:05:00,90.7,74.7,30.05,North,0,6.3,7.8,59,0.00,,,0.00,WUHU21623XXSP,2013-08-22 21:05:00,
2013-08-22 16:10:00,90.1,75.1,30.05,NNE,12,2.1,7.8,61,0.00,,,0.00,WUHU21623XXSP,2013-08-22 21:10:00,
2013-08-22 16:15:00,89.8,75.3,30.05,North,0,0.0,7.4,62,0.00,,,0.00,WUHU21623XXSP,2013-08-22 21:15:00,
2013-08-22 16:20:00,90.0,75.0,30.05,NE,45,0.0,6.7,61,0.00,,,0.00,WUHU21623XXSP,2013-08-22 21:20:00,
2013-08-22 16:25:00,90.0,75.0,30.05,North,352,4.1,6.7,61,0.00,,,0.00,WUHU21623XXSP,2013-08-22 21:25:00,
2013-08-22 16:30:00,90.1,75.1,30.04,NE,34,1.2,6.7,61,0.00,,,0.00,WUHU21623XXSP,2013-08-22 21:30:00,
2013-08-22 16:35:00,90.3,74.3,30.04,NNE,22,0.0,5.4,59,0.00,,,0.00,WUHU21623XXSP,2013-08-22 21:35:00,
2013-08-22 16:40:00,90.3,74.3,30.04,NNE,30,4.9,6.9,59,0.00,,,0.00,WUHU21623XXSP,2013-08-22 21:40:00,
2013-08-22 16:45:00,90.1,74.1,30.04,NE,45,1.2,6.9,59,0.00,,,0.00,WUHU21623XXSP,2013-08-22 21:45:00,
2013-08-22 16:50:00,90.1,74.1,30.04,North,4,1.6,4.0,59,0.00,,,0.00,WUHU21623XXSP,2013-08-22 21:50:00,
2013-08-22 16:55:00,90.1,74.1,30.04,NNE,28,4.4,7.2,59,0.00,,,0.00,WUHU21623XXSP,2013-08-22 21:55:00,
2013-08-22 17:00:00,90.0,74.0,30.04,NNE,30,2.1,7.8,59,0.00,,,0.00,WUHU21623XXSP,2013-08-22 22:00:00,
2013-08-22 17:05:00,89.8,73.9,30.04,NE,45,3.9,7.8,59,0.00,,,0.00,WUHU21623XXSP,2013-08-22 22:05:00,
2013-08-22 17:10:00,89.8,73.9,30.03,North,0,1.6,4.9,59,0.00,,,0.00,WUHU21623XXSP,2013-08-22 22:10:00,
2013-08-22 17:15:00,89.6,73.7,30.03,NW,315,0.0,1.6,59,0.00,,,0.00,WUHU21623XXSP,2013-08-22 22:15:00,
2013-08-22 17:20:00,89.8,73.9,30.03,NW,320,1.7,2.0,59,0.00,,,0.00,WUHU21623XXSP,2013-08-22 22:20:00,
2013-08-22 17:25:00,90.0,74.0,30.03,NNE,16,2.2,3.6,59,0.00,,,0.00,WUHU21623XXSP,2013-08-22 22:25:00,
2013-08-22 17:30:00,90.1,74.6,30.03,North,0,3.8,6.9,60,0.00,,,0.00,WUHU21623XXSP,2013-08-22 22:30:00,
2013-08-22 17:35:00,90.1,74.1,30.03,North,0,3.9,6.9,59,0.00,,,0.00,WUHU21623XXSP,2013-08-22 22:35:00,
2013-08-22 17:40:00,90.0,74.0,30.03,North,352,3.2,6.7,59,0.00,,,0.00,WUHU21623XXSP,2013-08-22 22:40:00,
2013-08-22 17:45:00,90.0,74.5,30.03,NNW,345,2.3,6.7,60,0.00,,,0.00,WUHU21623XXSP,2013-08-22 22:45:00,
2013-08-22 17:50:00,89.8,73.9,30.03,North,0,1.2,5.4,59,0.00,,,0.00,WUHU21623XXSP,2013-08-22 22:50:00,
2013-08-22 17:55:00,89.8,73.9,30.03,NNE,22,1.6,3.4,59,0.00,,,0.00,WUHU21623XXSP,2013-08-22 22:55:00,
2013-08-22 18:00:00,89.4,73.5,30.03,NNE,20,0.9,3.8,59,0.00,,,0.00,WUHU21623XXSP,2013-08-22 23:00:00,
2013-08-22 18:05:00,89.2,73.3,30.03,NNE,15,1.7,7.6,59,0.00,,,0.00,WUHU21623XXSP,2013-08-22 23:05:00,
2013-08-22 18:10:00,89.1,73.7,30.03,NE,45,0.0,7.6,60,0.00,,,0.00,WUHU21623XXSP,2013-08-22 23:10:00,
2013-08-22 18:15:00,88.9,74.0,30.03,NNE,22,0.9,4.3,61,0.00,,,0.00,WUHU21623XXSP,2013-08-22 23:15:00,
2013-08-22 18:20:00,88.5,73.6,30.03,NNE,22,0.0,4.3,61,0.00,,,0.00,WUHU21623XXSP,2013-08-22 23:20:00,
2013-08-22 18:25:00,88.3,73.9,30.03,NE,45,1.0,5.6,62,0.00,,,0.00,WUHU21623XXSP,2013-08-22 23:25:00,
2013-08-22 18:30:00,88.2,73.8,30.03,NE,45,2.7,5.6,62,0.00,,,0.00,WUHU21623XXSP,2013-08-22 23:30:00,
2013-08-22 18:35:00,87.8,74.4,30.03,NE,45,0.0,2.7,64,0.00,,,0.00,WUHU21623XXSP,2013-08-22 23:35:00,
2013-08-22 18:40:00,87.6,74.2,30.03,ESE,112,0.0,0.7,64,0.00,,,0.00,WUHU21623XXSP,2013-08-22 23:40:00,
2013-08-22 18:45:00,87.6,74.7,30.03,ENE,67,0.0,0.0,65,0.00,,,0.00,WUHU21623XXSP,2013-08-22 23:45:00,
2013-08-22 18:50:00,87.4,74.5,30.03,ENE,67,0.0,0.0,65,0.00,,,0.00,WUHU21623XXSP,2013-08-22 23:50:00,
2013-08-22 18:55:00,87.1,74.6,30.03,ENE,67,0.0,0.0,66,0.00,,,0.00,WUHU21623XXSP,2013-08-22 23:55:00,
2013-08-22 19:00:00,87.1,74.6,30.04,ENE,67,0.0,0.0,66,0.00,,,0.00,WUHU21623XXSP,2013-08-23 00:00:00,
2013-08-22 19:05:00,86.7,74.7,30.03,ENE,67,0.0,0.0,67,0.00,,,0.00,WUHU21623XXSP,2013-08-23 00:05:00,
2013-08-22 19:10:00,86.4,74.9,30.04,ENE,67,0.0,0.0,68,0.00,,,0.00,WUHU21623XXSP,2013-08-23 00:10:00,
2013-08-22 19:15:00,85.8,74.7,30.03,ENE,67,0.0,0.0,69,0.00,,,0.00,WUHU21623XXSP,2013-08-23 00:15:00,
2013-08-22 19:20:00,85.6,74.5,30.03,ENE,67,0.0,0.0,69,0.00,,,0.00,WUHU21623XXSP,2013-08-23 00:20:00,
2013-08-22 19:25:00,84.9,73.8,30.04,ENE,67,0.0,0.0,69,0.00,,,0.00,WUHU21623XXSP,2013-08-23 00:25:00,
2013-08-22 19:30:00,84.4,73.8,30.04,ENE,67,0.0,0.0,70,0.00,,,0.00,WUHU21623XXSP,2013-08-23 00:30:00,
2013-08-22 19:35:00,83.8,73.6,30.04,ENE,67,0.0,0.0,71,0.00,,,0.00,WUHU21623XXSP,2013-08-23 00:35:00,
2013-08-22 19:40:00,83.3,73.6,30.04,ENE,67,0.0,0.0,72,0.00,,,0.00,WUHU21623XXSP,2013-08-23 00:40:00,
2013-08-22 19:45:00,82.9,73.2,30.04,ENE,67,0.0,0.0,72,0.00,,,0.00,WUHU21623XXSP,2013-08-23 00:45:00,
2013-08-22 19:50:00,82.6,72.9,30.03,ENE,67,0.0,0.0,72,0.00,,,0.00,WUHU21623XXSP,2013-08-23 00:50:00,
2013-08-22 19:55:00,82.0,73.1,30.04,ENE,67,0.0,0.0,74,0.00,,,0.00,WUHU21623XXSP,2013-08-23 00:55:00,
2013-08-22 20:00:00,81.5,73.4,30.04,ENE,67,0.0,0.0,76,0.00,,,0.00,WUHU21623XXSP,2013-08-23 01:00:00,
2013-08-22 20:05:00,81.1,73.0,30.04,ENE,67,0.0,0.0,76,0.00,,,0.00,WUHU21623XXSP,2013-08-23 01:05:00,
2013-08-22 20:10:00,80.8,72.7,30.03,ENE,67,0.0,0.0,76,0.00,,,0.00,WUHU21623XXSP,2013-08-23 01:10:00,
2013-08-22 20:15:00,80.4,72.7,30.04,ENE,67,0.0,0.0,77,0.00,,,0.00,WUHU21623XXSP,2013-08-23 01:15:00,
2013-08-22 20:20:00,80.1,72.4,30.04,ENE,67,0.0,0.0,77,0.00,,,0.00,WUHU21623XXSP,2013-08-23 01:20:00,
2013-08-22 20:25:00,79.9,72.6,30.04,ENE,67,0.0,0.0,78,0.00,,,0.00,WUHU21623XXSP,2013-08-23 01:25:00,
2013-08-22 20:30:00,79.5,72.5,30.04,ENE,67,0.0,0.0,79,0.00,,,0.00,WUHU21623XXSP,2013-08-23 01:30:00,
2013-08-22 20:35:00,79.5,72.5,30.04,ENE,67,0.0,0.0,79,0.00,,,0.00,WUHU21623XXSP,2013-08-23 01:35:00,
2013-08-22 20:40:00,79.3,72.7,30.04,ENE,67,0.0,0.0,80,0.00,,,0.00,WUHU21623XXSP,2013-08-23 01:40:00,
2013-08-22 20:45:00,79.0,72.4,30.04,East,90,0.0,0.0,80,0.00,,,0.00,WUHU21623XXSP,2013-08-23 01:45:00,
2013-08-22 20:50:00,78.6,72.4,30.05,SE,135,0.0,0.0,81,0.00,,,0.00,WUHU21623XXSP,2013-08-23 01:50:00,
2013-08-22 20:55:00,78.6,72.4,30.05,SE,135,0.0,0.0,81,0.00,,,0.00,WUHU21623XXSP,2013-08-23 01:55:00,
2013-08-22 21:00:00,78.4,72.2,30.05,SE,135,0.0,0.0,81,0.00,,,0.00,WUHU21623XXSP,2013-08-23 02:00:00,
2013-08-22 21:05:00,78.3,72.1,30.05,SE,135,0.0,0.0,81,0.00,,,0.00,WUHU21623XXSP,2013-08-23 02:05:00,
2013-08-22 21:10:00,78.1,71.9,30.05,SE,135,0.0,0.0,81,0.00,,,0.00,WUHU21623XXSP,2013-08-23 02:10:00,
2013-08-22 21:15:00,77.7,71.5,30.06,SE,135,0.0,0.0,81,0.00,,,0.00,WUHU21623XXSP,2013-08-23 02:15:00,
2013-08-22 21:20:00,77.7,71.5,30.06,SSE,157,0.0,0.0,81,0.00,,,0.00,WUHU21623XXSP,2013-08-23 02:20:00,
2013-08-22 21:25:00,77.5,71.3,30.06,SSE,157,0.0,0.0,81,0.00,,,0.00,WUHU21623XXSP,2013-08-23 02:25:00,
2013-08-22 21:30:00,77.5,71.3,30.06,SSE,157,0.0,0.0,81,0.00,,,0.00,WUHU21623XXSP,2013-08-23 02:30:00,
2013-08-22 21:35:00,77.4,71.2,30.06,SSE,157,0.0,0.0,81,0.00,,,0.00,WUHU21623XXSP,2013-08-23 02:35:00,
2013-08-22 21:40:00,77.4,71.2,30.05,SSW,202,0.7,0.7,81,0.00,,,0.00,WUHU21623XXSP,2013-08-23 02:40:00,
2013-08-22 21:45:00,77.2,71.0,30.06,South,180,0.0,0.7,81,0.00,,,0.00,WUHU21623XXSP,2013-08-23 02:45:00,
2013-08-22 21:50:00,77.2,71.4,30.06,South,180,0.0,0.0,82,0.00,,,0.00,WUHU21623XXSP,2013-08-23 02:50:00,
2013-08-22 21:55:00,77.2,71.4,30.06,South,180,0.4,0.4,82,0.00,,,0.00,WUHU21623XXSP,2013-08-23 02:55:00,
2013-08-22 22:00:00,77.4,71.6,30.06,South,180,0.0,0.4,82,0.00,,,0.00,WUHU21623XXSP,2013-08-23 03:00:00,
2013-08-22 22:05:00,77.5,72.0,30.06,South,180,0.7,0.7,83,0.00,,,0.00,WUHU21623XXSP,2013-08-23 03:05:00,
2013-08-22 22:10:00,77.5,71.7,30.06,South,180,0.0,0.7,82,0.00,,,0.00,WUHU21623XXSP,2013-08-23 03:10:00,
2013-08-22 22:15:00,77.7,72.2,30.06,South,180,0.0,0.9,83,0.00,,,0.00,WUHU21623XXSP,2013-08-23 03:15:00,
2013-08-22 22:20:00,77.7,71.8,30.06,SSE,157,0.0,0.9,82,0.00,,,0.00,WUHU21623XXSP,2013-08-23 03:20:00,
2013-08-22 22:25:00,77.7,71.8,30.06,South,180,0.0,0.9,82,0.00,,,0.00,WUHU21623XXSP,2013-08-23 03:25:00,
2013-08-22 22:30:00,77.9,72.4,30.07,South,180,1.2,2.9,83,0.00,,,0.00,WUHU21623XXSP,2013-08-23 03:30:00,
2013-08-22 22:35:00,78.1,72.6,30.07,South,180,1.7,2.9,83,0.00,,,0.00,WUHU21623XXSP,2013-08-23 03:35:00,
2013-08-22 22:40:00,78.1,72.2,30.07,South,180,0.0,2.9,82,0.00,,,0.00,WUHU21623XXSP,2013-08-23 03:40:00,
2013-08-22 22:45:00,78.1,72.2,30.07,SSE,157,0.0,2.2,82,0.00,,,0.00,WUHU21623XXSP,2013-08-23 03:45:00,
2013-08-22 22:50:00,77.9,72.0,30.07,South,180,0.0,0.0,82,0.00,,,0.00,WUHU21623XXSP,2013-08-23 03:50:00,
2013-08-22 22:55:00,77.7,71.8,30.07,South,180,0.0,0.0,82,0.00,,,0.00,WUHU21623XXSP,2013-08-23 03:55:00,
2013-08-22 23:00:00,77.7,72.2,30.07,South,180,0.0,0.0,83,0.00,,,0.00,WUHU21623XXSP,2013-08-23 04:00:00,
2013-08-22 23:01:00,77.7,72.2,30.07,South,180,0.0,0.0,83,0.00,,,0.00,WUHU21623XXSP,2013-08-23 04:01:00,
2013-08-22 23:06:00,77.5,72.0,30.07,South,180,0.0,0.0,83,0.00,,,0.00,WUHU21623XXSP,2013-08-23 04:06:00,
2013-08-22 23:11:00,77.5,72.0,30.06,South,180,2.0,3.4,83,0.00,,,0.00,WUHU21623XXSP,2013-08-23 04:11:00,
2013-08-22 23:16:00,77.5,72.0,30.06,South,180,0.0,3.4,83,0.00,,,0.00,WUHU21623XXSP,2013-08-23 04:16:00,
2013-08-22 23:21:00,77.7,72.2,30.06,South,180,1.8,3.6,83,0.00,,,0.00,WUHU21623XXSP,2013-08-23 04:21:00,
2013-08-22 23:26:00,77.7,72.2,30.06,South,180,2.2,4.3,83,0.00,,,0.00,WUHU21623XXSP,2013-08-23 04:26:00,
2013-08-22 23:31:00,77.7,72.2,30.06,SSW,202,0.0,4.3,83,0.00,,,0.00,WUHU21623XXSP,2013-08-23 04:31:00,
2013-08-22 23:36:00,77.7,72.5,30.06,SSE,168,0.7,3.1,84,0.00,,,0.00,WUHU21623XXSP,2013-08-23 04:36:00,
2013-08-22 23:41:00,77.5,72.3,30.06,South,180,0.0,3.1,84,0.00,,,0.00,WUHU21623XXSP,2013-08-23 04:41:00,
2013-08-22 23:46:00,77.4,71.9,30.06,South,180,0.0,0.0,83,0.00,,,0.00,WUHU21623XXSP,2013-08-23 04:46:00,
2013-08-22 23:51:00,77.2,72.0,30.06,SSE,157,0.0,0.0,84,0.00,,,0.00,WUHU21623XXSP,2013-08-23 04:51:00,
2013-08-22 23:56:00,77.2,72.0,30.06,SSW,192,0.8,1.3,84,0.00,,,0.00,WUHU21623XXSP,2013-08-23 04:56:00,